Time;durP1;ratioP1;P1;durP2;ratioP2;P2;SDS_P1;SDS_P2;PMS_P1;PMS_P2;Temp;Humidity;BMP_temperature;BMP_pressure;BME280_temperature;BME280_humidity;BME280_pressure;Samples;Min_cycle;Max_cycle;Signal;HPM_P1;HPM_P2
2022/09/24 00:03:33;;;;;;;4.30;2.10;;;21.00;66.40;;;;;;10358566;28;20052;-43
2022/09/24 00:08:35;;;;;;;2.95;1.90;;;21.30;65.20;;;;;;10358031;28;20088;-44
2022/09/24 00:13:39;;;;;;;3.17;2.70;;;21.30;64.50;;;;;;10358615;28;20097;-40
2022/09/24 00:18:42;;;;;;;2.78;2.00;;;20.90;65.80;;;;;;10356241;28;20144;-44
2022/09/24 00:23:44;;;;;;;3.20;1.90;;;21.20;64.60;;;;;;10359209;28;20054;-43
2022/09/24 00:28:49;;;;;;;3.83;2.92;;;21.20;64.60;;;;;;10357734;28;20085;-44
2022/09/24 00:33:51;;;;;;;2.97;2.03;;;20.80;65.60;;;;;;10356328;28;20054;-43
2022/09/24 00:38:55;;;;;;;2.85;2.22;;;21.30;64.60;;;;;;10356773;28;20057;-44
2022/09/24 00:43:59;;;;;;;4.43;2.00;;;21.00;65.30;;;;;;10357595;28;20484;-43
2022/09/24 00:49:05;;;;;;;3.47;1.95;;;21.40;63.90;;;;;;10357049;28;20132;-41
2022/09/24 00:54:12;;;;;;;2.45;2.13;;;21.20;64.60;;;;;;10354330;28;20542;-42
2022/09/24 00:59:18;;;;;;;2.67;2.00;;;21.40;63.70;;;;;;10355026;28;20136;-41
2022/09/24 01:04:21;;;;;;;2.28;1.65;;;21.40;63.60;;;;;;10352828;28;20053;-44
2022/09/24 01:09:25;;;;;;;2.45;1.95;;;21.40;63.40;;;;;;10352184;28;20096;-46
2022/09/24 01:14:41;;;;;;;3.42;1.95;;;21.40;63.30;;;;;;10351874;28;20044;-46
2022/09/24 01:20:17;;;;;;;3.22;1.92;;;21.40;63.60;;;;;;10356337;28;20057;-42
2022/09/24 01:25:28;;;;;;;2.03;1.65;;;21.40;63.40;;;;;;10356446;28;20738;-43
2022/09/24 01:30:37;;;;;;;5.13;2.00;;;21.50;63.10;;;;;;10356223;28;20148;-45
2022/09/24 01:35:42;;;;;;;4.93;2.25;;;21.50;62.90;;;;;;10350973;28;20042;-41
2022/09/24 01:40:46;;;;;;;2.90;2.20;;;21.50;63.10;;;;;;10352922;28;20130;-43
2022/09/24 01:45:50;;;;;;;3.28;2.05;;;21.40;63.20;;;;;;10356271;28;20046;-42
2022/09/24 01:50:58;;;;;;;3.17;2.05;;;21.50;63.00;;;;;;10356343;28;20056;-43
2022/09/24 01:56:06;;;;;;;3.70;2.42;;;21.50;62.90;;;;;;10352660;28;20077;-44
2022/09/24 02:01:15;;;;;;;3.03;2.20;;;21.50;62.90;;;;;;10354061;28;20046;-44
2022/09/24 02:06:20;;;;;;;3.03;1.85;;;21.40;63.00;;;;;;10355159;28;20193;-44
2022/09/24 02:11:23;;;;;;;3.30;1.90;;;21.40;62.90;;;;;;10354002;28;20044;-42
2022/09/24 02:16:30;;;;;;;2.58;2.03;;;21.40;63.50;;;;;;10355507;28;20058;-44
2022/09/24 02:21:34;;;;;;;2.60;2.05;;;21.40;62.90;;;;;;10352936;28;20452;-45
2022/09/24 02:26:36;;;;;;;2.75;2.00;;;21.40;63.00;;;;;;10354468;28;20385;-45
2022/09/24 02:31:43;;;;;;;2.60;2.05;;;21.50;62.90;;;;;;10353768;28;20196;-45
2022/09/24 02:36:45;;;;;;;3.25;2.13;;;21.40;62.90;;;;;;10354184;28;20057;-44
2022/09/24 02:41:49;;;;;;;2.50;1.98;;;21.40;62.80;;;;;;10353363;28;20050;-44
2022/09/24 02:46:52;;;;;;;3.58;2.20;;;21.40;62.90;;;;;;10353580;28;20085;-45
2022/09/24 02:51:54;;;;;;;2.35;1.77;;;21.40;62.90;;;;;;10352560;28;20050;-45
2022/09/24 02:56:56;;;;;;;;;;;21.40;63.00;;;;;;10355861;28;20107;-44
2022/09/24 03:01:59;;;;;;;4.03;2.10;;;21.40;62.90;;;;;;10351328;28;20012;-45
2022/09/24 03:07:01;;;;;;;2.42;1.88;;;21.40;62.80;;;;;;10353507;28;20097;-45
2022/09/24 03:12:04;;;;;;;2.35;1.95;;;21.40;62.80;;;;;;10356920;28;20458;-44
2022/09/24 03:17:07;;;;;;;2.50;2.10;;;21.40;62.80;;;;;;10360317;28;20056;-43
2022/09/24 03:22:08;;;;;;;2.50;2.00;;;21.40;62.90;;;;;;10361776;28;20073;-45
2022/09/24 03:27:10;;;;;;;2.38;2.08;;;21.40;62.90;;;;;;10361261;28;20060;-46
2022/09/24 03:32:14;;;;;;;2.35;2.00;;;21.30;62.90;;;;;;10359678;28;20129;-43
2022/09/24 03:37:15;;;;;;;2.92;2.20;;;21.40;62.80;;;;;;10360435;28;20049;-43
2022/09/24 03:42:17;;;;;;;2.88;2.58;;;21.40;62.90;;;;;;10359987;28;20046;-45
2022/09/24 03:47:20;;;;;;;1.98;1.73;;;21.30;63.00;;;;;;10359320;28;20642;-45
2022/09/24 03:52:22;;;;;;;3.40;2.50;;;21.30;63.10;;;;;;10359759;28;20136;-43
2022/09/24 03:57:24;;;;;;;;;;;21.30;62.90;;;;;;10361503;28;20073;-42
2022/09/24 04:02:27;;;;;;;3.93;2.20;;;21.30;62.90;;;;;;10358446;28;19972;-42
2022/09/24 04:07:29;;;;;;;2.80;2.45;;;21.30;63.00;;;;;;10358198;28;20501;-45
2022/09/24 04:12:31;;;;;;;2.83;2.25;;;21.40;62.90;;;;;;10358300;28;20056;-44
2022/09/24 04:17:34;;;;;;;;;;;21.30;62.90;;;;;;10359947;28;20415;-43
2022/09/24 04:22:36;;;;;;;3.03;2.38;;;21.30;63.00;;;;;;10358368;28;19999;-45
2022/09/24 04:27:38;;;;;;;2.60;2.35;;;21.30;62.90;;;;;;10356832;28;20484;-45
2022/09/24 04:32:42;;;;;;;3.78;2.35;;;21.30;63.00;;;;;;10358019;28;20050;-45
2022/09/24 04:37:44;;;;;;;3.13;2.75;;;21.20;63.10;;;;;;10358424;28;20073;-44
2022/09/24 04:42:46;;;;;;;4.22;2.80;;;21.30;62.90;;;;;;10359001;28;20596;-46
2022/09/24 04:47:51;;;;;;;2.63;2.35;;;21.30;63.20;;;;;;10356246;28;20057;-43
2022/09/24 04:52:53;;;;;;;3.38;3.00;;;21.30;63.00;;;;;;10356633;28;20513;-38
2022/09/24 04:57:55;;;;;;;;;;;21.20;63.40;;;;;;10357086;28;20065;-44
2022/09/24 05:02:59;;;;;;;5.10;2.80;;;21.20;63.30;;;;;;10357689;28;19953;-44
2022/09/24 05:08:01;;;;;;;4.03;2.60;;;21.20;63.10;;;;;;10352347;28;20141;-45
2022/09/24 05:13:03;;;;;;;;;;;21.20;63.40;;;;;;10354784;28;20081;-42
2022/09/24 05:18:06;;;;;;;3.28;2.53;;;21.20;63.50;;;;;;10354976;28;19929;-37
2022/09/24 05:23:08;;;;;;;3.30;2.65;;;21.30;63.30;;;;;;10354228;28;20054;-45
2022/09/24 05:28:10;;;;;;;3.90;3.05;;;21.20;63.10;;;;;;10354326;28;20072;-42
2022/09/24 05:33:14;;;;;;;3.83;2.92;;;21.20;63.50;;;;;;10351659;28;20089;-42
2022/09/24 05:38:15;;;;;;;2.90;2.22;;;21.10;63.80;;;;;;10349213;28;20131;-45
2022/09/24 05:43:19;;;;;;;2.60;2.30;;;21.10;63.70;;;;;;10350899;28;20061;-45
2022/09/24 05:48:22;;;;;;;2.92;2.53;;;20.90;64.40;;;;;;10351342;28;20053;-45
2022/09/24 05:53:24;;;;;;;3.35;2.10;;;21.00;64.20;;;;;;10348380;28;20219;-44
2022/09/24 05:58:26;;;;;;;3.45;2.65;;;21.10;63.60;;;;;;10350066;28;20046;-45
2022/09/24 06:03:30;;;;;;;3.70;2.40;;;21.10;63.70;;;;;;10351357;28;20502;-45
2022/09/24 06:08:32;;;;;;;2.78;2.15;;;21.10;63.80;;;;;;10350596;28;20060;-41
2022/09/24 06:13:34;;;;;;;;;;;21.10;63.80;;;;;;10351488;28;20053;-45
2022/09/24 06:18:39;;;;;;;2.55;2.00;;;21.20;63.30;;;;;;10353382;28;19925;-45
2022/09/24 06:23:44;;;;;;;2.75;2.22;;;21.20;63.90;;;;;;10350210;28;20042;-45
2022/09/24 06:28:45;;;;;;;3.10;2.20;;;21.20;63.40;;;;;;10348180;28;20056;-46
2022/09/24 06:33:49;;;;;;;3.88;2.40;;;21.10;63.70;;;;;;10348332;28;20108;-44
2022/09/24 06:38:51;;;;;;;4.90;1.88;;;21.00;64.30;;;;;;10346560;28;20045;-42
2022/09/24 06:43:54;;;;;;;2.45;1.80;;;20.50;65.60;;;;;;10350445;28;20172;-43
2022/09/24 06:48:58;;;;;;;3.95;2.20;;;21.00;64.30;;;;;;10358296;28;20064;-44
2022/09/24 06:54:00;;;;;;;7.13;2.22;;;20.80;65.20;;;;;;10359246;28;20053;-44
2022/09/24 06:59:02;;;;;;;3.55;1.98;;;20.60;65.70;;;;;;10359144;28;20053;-42
2022/09/24 07:04:05;;;;;;;5.80;2.20;;;20.60;66.30;;;;;;10356723;28;20599;-44
2022/09/24 07:09:07;;;;;;;2.85;1.42;;;20.60;66.20;;;;;;10358147;28;20054;-43
2022/09/24 07:14:09;;;;;;;5.70;1.50;;;19.80;69.20;;;;;;10355214;28;20553;-43
2022/09/24 07:19:12;;;;;;;2.67;1.65;;;20.50;66.70;;;;;;10357867;28;20086;-45
2022/09/24 07:24:14;;;;;;;2.72;2.00;;;20.20;68.10;;;;;;10356136;28;20712;-46
2022/09/24 07:29:16;;;;;;;5.13;1.90;;;20.40;68.10;;;;;;10355913;28;20173;-43
2022/09/24 07:34:19;;;;;;;6.55;1.60;;;19.90;70.60;;;;;;10357285;28;20446;-45
2022/09/24 07:39:21;;;;;;;8.98;1.67;;;20.30;69.00;;;;;;10359028;28;20492;-45
2022/09/24 07:44:23;;;;;;;2.75;1.38;;;20.10;69.80;;;;;;10357946;28;20167;-43
2022/09/24 07:49:28;;;;;;;4.95;1.40;;;20.80;68.50;;;;;;10358918;28;20100;-41
2022/09/24 07:54:30;;;;;;;5.10;1.35;;;20.60;68.50;;;;;;10357861;28;20077;-44
2022/09/24 07:59:32;;;;;;;5.25;1.50;;;20.40;68.90;;;;;;10359015;28;20054;-41
2022/09/24 08:04:35;;;;;;;9.43;2.08;;;20.80;68.20;;;;;;10355101;28;20038;-43
2022/09/24 08:09:37;;;;;;;5.78;1.40;;;20.50;68.80;;;;;;10357419;28;20133;-42
2022/09/24 08:14:40;;;;;;;5.15;1.38;;;20.50;68.20;;;;;;10355301;28;20069;-39
2022/09/24 08:19:45;;;;;;;12.50;1.88;;;20.50;68.60;;;;;;10357910;28;20053;-45
2022/09/24 08:24:46;;;;;;;10.35;2.38;;;20.70;68.70;;;;;;10357012;28;20049;-39
2022/09/24 08:29:48;;;;;;;13.90;4.68;;;20.80;67.80;;;;;;10355978;28;20440;-46
2022/09/24 08:34:51;;;;;;;8.10;2.88;;;20.90;67.40;;;;;;10357961;28;20068;-43
2022/09/24 08:39:53;;;;;;;9.32;2.85;;;20.80;68.00;;;;;;10356971;28;20086;-42
2022/09/24 08:50:21;;;;;;;6.97;1.80;;;20.60;68.90;;;;;;10356321;28;20054;-44
2022/09/24 08:55:28;;;;;;;7.38;1.58;;;20.70;68.50;;;;;;10353016;28;20152;-45
2022/09/24 09:00:36;;;;;;;7.38;1.40;;;20.90;67.60;;;;;;10351838;28;20050;-42
2022/09/24 09:05:51;;;;;;;4.55;1.33;;;21.10;68.10;;;;;;10354604;28;20050;-43
2022/09/24 09:11:00;;;;;;;5.82;1.30;;;21.00;66.90;;;;;;10352079;28;20050;-42
2022/09/24 09:16:06;;;;;;;5.90;1.20;;;21.20;66.60;;;;;;10354002;28;21050;-44
2022/09/24 09:21:16;;;;;;;6.22;1.30;;;21.10;66.50;;;;;;10354552;28;20048;-45
2022/09/24 09:26:20;;;;;;;4.03;1.25;;;21.20;66.10;;;;;;10355182;28;20123;-44
2022/09/24 09:31:32;;;;;;;11.23;3.15;;;21.20;66.00;;;;;;10353330;28;20054;-46
2022/09/24 09:36:44;;;;;;;;;;;21.30;65.40;;;;;;10355303;28;20140;-43
2022/09/24 09:41:53;;;;;;;4.47;1.10;;;21.40;65.40;;;;;;10353269;28;19921;-36
2022/09/24 09:47:00;;;;;;;6.75;1.00;;;21.40;65.50;;;;;;10354428;28;20490;-33
2022/09/24 09:52:11;;;;;;;3.92;1.08;;;21.30;65.50;;;;;;10352729;28;20718;-37
2022/09/24 09:57:17;;;;;;;8.57;1.27;;;21.00;66.50;;;;;;10350443;28;20426;-36
2022/09/24 10:02:25;;;;;;;5.72;1.38;;;21.30;64.80;;;;;;10350250;28;20052;-36
2022/09/24 10:07:30;;;;;;;2.90;0.90;;;21.30;64.80;;;;;;10354175;28;20080;-43
2022/09/24 10:12:32;;;;;;;4.80;1.05;;;21.50;64.40;;;;;;10353523;28;20587;-34
2022/09/24 10:17:37;;;;;;;1.70;0.80;;;21.60;64.20;;;;;;10354311;28;20049;-35
2022/09/24 10:22:46;;;;;;;4.03;1.50;;;21.60;64.30;;;;;;10353214;28;20137;-36
2022/09/24 10:27:48;;;;;;;4.78;1.58;;;21.40;64.40;;;;;;10352671;28;20054;-36
2022/09/24 10:32:57;;;;;;;8.55;1.77;;;21.40;64.40;;;;;;10352571;28;20046;-34
2022/09/24 10:38:01;;;;;;;7.07;1.92;;;21.30;64.60;;;;;;10353242;28;20145;-37
2022/09/24 10:43:05;;;;;;;10.00;3.05;;;21.50;63.90;;;;;;10352841;28;20133;-35
2022/09/24 10:48:17;;;;;;;8.32;3.03;;;21.50;63.70;;;;;;10352347;28;20184;-36
2022/09/24 10:53:29;;;;;;;4.88;2.22;;;21.60;63.80;;;;;;10352819;28;20471;-36
2022/09/24 10:58:52;;;;;;;5.40;1.63;;;21.70;63.50;;;;;;10351998;28;20137;-38
2022/09/24 11:04:25;;;;;;;4.32;2.03;;;21.70;63.30;;;;;;10350853;28;20565;-36
2022/09/24 11:09:38;;;;;;;4.03;1.63;;;21.70;63.20;;;;;;10353551;28;20141;-36
2022/09/24 11:15:03;;;;;;;4.43;1.25;;;21.60;63.30;;;;;;10353631;28;20130;-36
2022/09/24 11:20:22;;;;;;;4.68;1.00;;;21.70;63.20;;;;;;10351280;28;20050;-35
2022/09/24 11:25:35;;;;;;;5.28;1.02;;;21.70;63.10;;;;;;10353358;28;20049;-31
2022/09/24 11:30:46;;;;;;;3.10;1.02;;;21.70;63.10;;;;;;10353147;28;20050;-36
2022/09/24 11:36:04;;;;;;;4.70;2.22;;;21.70;63.00;;;;;;10360624;28;20049;-36
2022/09/24 11:41:20;;;;;;;5.00;2.08;;;21.70;62.90;;;;;;10357175;28;20505;-35
2022/09/24 11:46:46;;;;;;;8.35;1.90;;;21.70;62.90;;;;;;10358324;28;20062;-36
2022/09/24 11:51:55;;;;;;;6.63;2.00;;;21.70;62.90;;;;;;10360530;28;20068;-37
2022/09/24 11:57:05;;;;;;;6.47;1.73;;;21.80;63.10;;;;;;10358764;28;20591;-36
2022/09/24 12:02:15;;;;;;;4.78;1.40;;;21.80;63.20;;;;;;10357805;28;20136;-36
2022/09/24 12:07:24;;;;;;;7.72;1.00;;;21.60;63.40;;;;;;10356961;28;20048;-34
2022/09/24 12:12:31;;;;;;;6.10;1.83;;;21.60;63.50;;;;;;10355724;28;20133;-35
2022/09/24 12:17:38;;;;;;;3.63;1.30;;;21.80;62.90;;;;;;10355242;28;21121;-35
2022/09/24 12:22:41;;;;;;;5.07;1.38;;;21.70;63.20;;;;;;10357254;28;20581;-35
2022/09/24 12:27:46;;;;;;;3.20;1.10;;;21.70;63.10;;;;;;10355584;28;20107;-36
2022/09/24 12:32:54;;;;;;;8.35;1.25;;;21.70;63.20;;;;;;10355908;28;20062;-35
2022/09/24 12:38:03;;;;;;;5.13;1.10;;;21.70;62.90;;;;;;10356173;28;20979;-36
2022/09/24 12:43:18;;;;;;;5.22;1.58;;;21.80;62.60;;;;;;10354979;28;20201;-36
2022/09/24 12:48:22;;;;;;;4.25;0.88;;;21.60;63.20;;;;;;10355652;28;20228;-34
2022/09/24 12:53:26;;;;;;;4.15;0.90;;;21.80;63.00;;;;;;10356646;28;20054;-36
2022/09/24 12:58:37;;;;;;;2.53;0.90;;;21.90;62.30;;;;;;10355335;28;20487;-34
2022/09/24 13:03:41;;;;;;;8.23;1.00;;;22.00;62.10;;;;;;10357172;28;20427;-35
2022/09/24 13:08:43;;;;;;;4.88;0.75;;;22.00;62.00;;;;;;10356456;28;20068;-36
2022/09/24 13:13:46;;;;;;;2.97;1.10;;;22.00;62.30;;;;;;10356382;28;20065;-35
2022/09/24 13:18:54;;;;;;;4.78;0.80;;;22.00;62.20;;;;;;10356593;28;20140;-37
2022/09/24 13:23:56;;;;;;;4.32;0.90;;;21.60;62.10;;;;;;10356038;28;20085;-36
2022/09/24 13:29:01;;;;;;;4.18;0.70;;;21.90;61.90;;;;;;10355219;28;20049;-35
2022/09/24 13:34:14;;;;;;;6.25;1.10;;;21.90;61.70;;;;;;10354192;28;20053;-36
2022/09/24 13:39:20;;;;;;;2.80;0.77;;;21.90;58.90;;;;;;10353714;28;20648;-37
2022/09/24 13:44:27;;;;;;;5.65;1.25;;;21.90;62.20;;;;;;10353455;28;20049;-35
2022/09/24 13:49:31;;;;;;;2.60;0.80;;;22.00;61.70;;;;;;10353583;28;20081;-36
2022/09/24 13:54:38;;;;;;;2.88;1.40;;;21.80;61.90;;;;;;10355106;28;20053;-34
2022/09/24 13:59:41;;;;;;;15.43;1.52;;;21.90;60.50;;;;;;10351215;28;20111;-35
2022/09/24 14:04:45;;;;;;;4.63;0.98;;;22.20;61.80;;;;;;10353417;28;20605;-36
2022/09/24 14:09:47;;;;;;;4.28;0.60;;;22.20;61.10;;;;;;10351325;28;20046;-37
2022/09/24 14:14:56;;;;;;;7.32;1.00;;;22.20;60.20;;;;;;10352979;28;20124;-36
2022/09/24 14:19:59;;;;;;;4.30;2.00;;;22.20;60.90;;;;;;10353524;28;20054;-37
2022/09/24 14:25:04;;;;;;;5.53;0.70;;;22.10;60.50;;;;;;10349829;28;20151;-33
2022/09/24 14:30:17;;;;;;;4.22;0.65;;;22.20;60.60;;;;;;10352833;28;20132;-35
2022/09/24 14:35:21;;;;;;;4.03;0.85;;;22.40;60.00;;;;;;10353875;28;20549;-35
2022/09/24 14:40:24;;;;;;;3.40;0.75;;;22.60;59.20;;;;;;10352804;28;20140;-35
2022/09/24 14:45:33;;;;;;;2.00;0.50;;;22.60;59.60;;;;;;10353488;28;20045;-36
2022/09/24 14:50:38;;;;;;;5.82;0.77;;;22.70;59.60;;;;;;10352288;28;20487;-35
2022/09/24 14:55:44;;;;;;;4.78;0.88;;;22.90;59.10;;;;;;10351805;28;20077;-36
2022/09/24 15:00:50;;;;;;;1.90;0.68;;;23.00;58.20;;;;;;10352152;28;20065;-36
2022/09/24 15:05:52;;;;;;;1.98;0.70;;;23.00;58.80;;;;;;10355241;28;20054;-38
2022/09/24 15:10:55;;;;;;;6.68;0.75;;;23.00;58.30;;;;;;10359511;28;20054;-37
2022/09/24 15:16:16;;;;;;;6.63;0.90;;;23.30;57.20;;;;;;10357887;28;20108;-37
2022/09/24 15:21:18;;;;;;;2.55;0.65;;;23.40;57.00;;;;;;10358290;28;20483;-36
2022/09/24 15:26:20;;;;;;;6.25;1.02;;;23.50;55.50;;;;;;10360194;28;20140;-37
2022/09/24 15:31:23;;;;;;;6.18;0.80;;;23.40;57.80;;;;;;10361318;28;20053;-37
2022/09/24 15:36:25;;;;;;;2.08;0.70;;;23.80;56.10;;;;;;10359101;28;20065;-37
2022/09/24 15:41:27;;;;;;;6.88;1.65;;;23.70;58.70;;;;;;10358039;28;20073;-37
2022/09/24 15:46:30;;;;;;;;;;;23.70;56.80;;;;;;10358350;28;21003;-35
2022/09/24 15:51:32;;;;;;;5.93;2.25;;;23.90;56.50;;;;;;10359274;28;20016;-35
2022/09/24 15:56:34;;;;;;;6.72;3.20;;;23.90;56.60;;;;;;10358262;28;20133;-38
2022/09/24 16:01:37;;;;;;;6.00;2.17;;;24.00;57.30;;;;;;10356876;28;20149;-36
2022/09/24 16:06:39;;;;;;;8.55;3.33;;;24.00;56.50;;;;;;10358069;28;20141;-38
2022/09/24 16:11:41;;;;;;;;;;;24.00;57.00;;;;;;10357483;28;20138;-38
2022/09/24 16:16:44;;;;;;;226.80;146.57;;;23.70;56.50;;;;;;10357306;28;20016;-35
2022/09/24 16:21:46;;;;;;;548.80;413.10;;;23.70;55.70;;;;;;10356737;28;20124;-36
2022/09/24 16:26:48;;;;;;;527.70;400.23;;;23.50;57.60;;;;;;10352450;28;20125;-46
2022/09/24 16:31:51;;;;;;;;;;;24.30;56.70;;;;;;10345282;28;20207;-43
2022/09/24 16:36:53;;;;;;;448.30;338.48;;;24.20;58.20;;;;;;10353489;28;19925;-47
2022/09/24 16:41:54;;;;;;;;;;;24.10;58.50;;;;;;10357431;28;20060;-40
2022/09/24 16:47:00;;;;;;;355.93;263.07;;;24.20;57.90;;;;;;10354726;28;19925;-44
2022/09/24 16:52:02;;;;;;;389.17;296.88;;;24.00;58.00;;;;;;10354287;28;20496;-42
2022/09/24 16:57:05;;;;;;;225.57;167.13;;;23.90;58.00;;;;;;10355275;28;20196;-44
2022/09/24 17:02:10;;;;;;;293.20;224.43;;;23.90;57.90;;;;;;10353868;28;20491;-43
2022/09/24 17:07:12;;;;;;;258.60;192.45;;;23.80;58.50;;;;;;10355015;28;20139;-46
2022/09/24 17:12:13;;;;;;;;;;;23.90;58.00;;;;;;10353779;28;20137;-45
2022/09/24 17:17:17;;;;;;;189.37;142.17;;;23.90;58.10;;;;;;10356673;28;20382;-39
2022/09/24 17:22:18;;;;;;;174.95;129.85;;;23.90;58.20;;;;;;10354546;28;20575;-41
2022/09/24 17:27:20;;;;;;;156.02;118.72;;;23.80;58.10;;;;;;10353868;28;20128;-46
2022/09/24 17:32:23;;;;;;;;;;;23.70;57.60;;;;;;10353554;28;20054;-42
2022/09/24 17:37:27;;;;;;;135.98;100.90;;;23.80;57.80;;;;;;10354776;28;20012;-45
2022/09/24 17:42:30;;;;;;;122.82;89.85;;;23.70;57.70;;;;;;10353574;28;20404;-42
2022/09/24 17:47:54;;;;;;;112.13;82.07;;;23.70;57.70;;;;;;10354939;28;20042;-43
2022/09/24 17:52:57;;;;;;;95.85;72.45;;;23.60;58.00;;;;;;10354921;28;20046;-40
2022/09/24 17:57:59;;;;;;;82.35;57.88;;;23.50;57.90;;;;;;10353780;28;20072;-43
2022/09/24 18:03:02;;;;;;;;;;;23.50;57.20;;;;;;10353545;28;20058;-42
2022/09/24 18:08:04;;;;;;;70.05;52.47;;;23.40;57.70;;;;;;10353192;28;20551;-45
2022/09/24 18:13:06;;;;;;;55.88;40.75;;;23.40;57.60;;;;;;10348023;28;20611;-39
2022/09/24 18:18:09;;;;;;;;;;;23.40;57.50;;;;;;10352467;28;20086;-45
2022/09/24 18:23:11;;;;;;;44.38;34.60;;;23.20;57.40;;;;;;10353162;28;19925;-45
2022/09/24 18:28:13;;;;;;;42.80;31.55;;;23.30;57.50;;;;;;10352885;28;20049;-42
2022/09/24 18:33:16;;;;;;;35.45;26.75;;;23.20;57.50;;;;;;10349746;28;20054;-42
2022/09/24 18:38:19;;;;;;;33.38;23.63;;;23.20;57.40;;;;;;10348773;28;20514;-43
2022/09/24 18:43:21;;;;;;;25.20;19.30;;;23.20;57.60;;;;;;10340302;28;20164;-45
2022/09/24 18:48:24;;;;;;;20.20;15.88;;;23.10;57.60;;;;;;10361132;28;20197;-44
2022/09/24 18:53:30;;;;;;;21.58;16.40;;;23.10;57.80;;;;;;10358123;28;20148;-42
2022/09/24 18:58:32;;;;;;;19.98;13.60;;;23.00;57.90;;;;;;10358089;28;20057;-42
2022/09/24 19:03:36;;;;;;;20.35;12.27;;;23.00;57.80;;;;;;10358099;28;20058;-43
2022/09/24 19:08:38;;;;;;;21.40;13.23;;;23.00;58.00;;;;;;10355635;28;20478;-43
2022/09/24 19:13:42;;;;;;;16.90;11.77;;;23.00;58.00;;;;;;10358651;28;20144;-43
2022/09/24 19:18:45;;;;;;;14.73;10.65;;;23.00;58.00;;;;;;10359520;28;20112;-41
2022/09/24 19:23:49;;;;;;;15.38;9.48;;;22.80;57.90;;;;;;10358371;28;20073;-44
2022/09/24 19:28:52;;;;;;;13.80;9.18;;;22.80;58.00;;;;;;10360781;28;20058;-39
2022/09/24 19:33:56;;;;;;;12.13;8.90;;;22.80;57.90;;;;;;10357550;28;20085;-42
2022/09/24 19:38:59;;;;;;;14.18;8.65;;;22.70;57.90;;;;;;10356783;28;20080;-44
2022/09/24 19:44:02;;;;;;;11.95;7.90;;;22.70;57.90;;;;;;10357666;28;20049;-43
2022/09/24 19:49:05;;;;;;;;;;;22.70;57.90;;;;;;10357337;28;20475;-35
2022/09/24 19:54:08;;;;;;;12.60;8.05;;;22.60;57.80;;;;;;10357023;28;19925;-41
2022/09/24 19:59:10;;;;;;;12.20;7.13;;;22.60;57.80;;;;;;10356506;28;20053;-41
2022/09/24 20:04:14;;;;;;;11.43;7.03;;;22.60;57.80;;;;;;10356558;28;20046;-40
2022/09/24 20:09:15;;;;;;;10.40;6.68;;;22.50;57.80;;;;;;10356941;28;20133;-42
2022/09/24 20:14:20;;;;;;;10.82;7.50;;;22.50;57.80;;;;;;10355361;28;20661;-42
2022/09/24 20:19:25;;;;;;;15.05;9.13;;;22.40;57.90;;;;;;10353846;28;20907;-43
2022/09/24 20:24:27;;;;;;;13.45;9.20;;;22.40;57.80;;;;;;10353597;28;20135;-43
2022/09/24 20:29:29;;;;;;;15.90;10.18;;;22.40;58.00;;;;;;10357273;28;20093;-43
2022/09/24 20:34:33;;;;;;;19.90;10.40;;;22.40;58.10;;;;;;10357906;28;20505;-44
2022/09/24 20:39:35;;;;;;;14.43;10.30;;;22.30;58.10;;;;;;10358919;28;20048;-44
2022/09/24 20:44:36;;;;;;;14.13;10.60;;;22.20;58.10;;;;;;10357253;28;20127;-45
2022/09/24 20:49:40;;;;;;;18.50;11.05;;;22.30;58.30;;;;;;10357889;28;20049;-43
2022/09/24 20:54:42;;;;;;;17.13;11.85;;;22.30;58.30;;;;;;10356270;28;20359;-45
2022/09/24 20:59:43;;;;;;;19.95;11.07;;;22.20;58.80;;;;;;10355568;28;20108;-44
2022/09/24 21:04:47;;;;;;;17.55;10.93;;;22.20;58.30;;;;;;10358268;28;20053;-45
2022/09/24 21:09:49;;;;;;;20.52;11.57;;;22.20;58.30;;;;;;10355842;28;20133;-46
2022/09/24 21:14:51;;;;;;;17.77;10.85;;;22.10;58.30;;;;;;10356149;28;20050;-45
2022/09/24 21:19:55;;;;;;;17.23;10.73;;;22.10;58.30;;;;;;10354994;28;20504;-44
2022/09/24 21:24:57;;;;;;;21.15;11.15;;;22.10;58.30;;;;;;10352252;28;20049;-44
2022/09/24 21:29:59;;;;;;;17.75;10.77;;;22.10;58.40;;;;;;10352663;28;20056;-45
2022/09/24 21:35:02;;;;;;;17.48;11.13;;;22.00;58.40;;;;;;10354768;28;20046;-44
2022/09/24 21:40:05;;;;;;;17.60;11.73;;;22.00;58.40;;;;;;10351709;28;20477;-44
2022/09/24 21:45:08;;;;;;;16.48;10.95;;;22.00;58.40;;;;;;10334439;28;20085;-44
2022/09/24 21:50:11;;;;;;;18.65;11.18;;;22.00;58.50;;;;;;10353538;28;20045;-40
2022/09/24 21:55:13;;;;;;;16.65;11.13;;;21.90;58.30;;;;;;10353782;28;20140;-42
2022/09/24 22:00:15;;;;;;;18.13;10.68;;;21.90;58.20;;;;;;10353371;28;20136;-43
2022/09/24 22:05:18;;;;;;;;;;;21.90;58.50;;;;;;10352269;28;20660;-45
2022/09/24 22:10:20;;;;;;;17.90;10.95;;;21.90;58.40;;;;;;10354413;28;19937;-45
2022/09/24 22:15:22;;;;;;;17.88;10.13;;;21.80;58.50;;;;;;10350820;28;20142;-42
2022/09/24 22:20:25;;;;;;;18.80;10.20;;;21.80;58.40;;;;;;10352548;28;20539;-44
2022/09/24 22:25:30;;;;;;;15.02;9.68;;;21.80;58.50;;;;;;10352928;28;20049;-42
2022/09/24 22:30:32;;;;;;;15.07;9.07;;;21.80;58.60;;;;;;10352197;28;20056;-46
2022/09/24 22:35:49;;;;;;;15.73;9.18;;;21.80;58.50;;;;;;10352706;28;20045;-43
2022/09/24 22:40:51;;;;;;;12.52;8.65;;;21.70;58.50;;;;;;10354520;28;20054;-43
2022/09/24 22:45:56;;;;;;;15.73;8.48;;;21.70;58.50;;;;;;10353524;28;20068;-40
2022/09/24 22:51:01;;;;;;;12.30;8.10;;;21.70;59.20;;;;;;10351828;28;20057;-44
2022/09/24 22:56:04;;;;;;;11.02;7.45;;;21.60;58.60;;;;;;10351391;28;20050;-46
2022/09/24 23:01:07;;;;;;;13.57;7.63;;;21.60;58.70;;;;;;10352180;28;20045;-42
2022/09/24 23:06:11;;;;;;;11.40;7.68;;;21.50;58.60;;;;;;10349587;28;20202;-45
2022/09/24 23:11:15;;;;;;;11.00;6.78;;;21.60;58.70;;;;;;10351805;28;20046;-41
2022/09/24 23:16:18;;;;;;;9.82;6.57;;;21.50;58.70;;;;;;10353158;28;20189;-46
2022/09/24 23:21:23;;;;;;;12.30;6.35;;;21.50;58.70;;;;;;10351974;28;20475;-44
2022/09/24 23:26:26;;;;;;;9.45;6.03;;;21.50;58.80;;;;;;10351452;28;20525;-45
2022/09/24 23:31:30;;;;;;;9.88;5.38;;;21.40;58.40;;;;;;10360733;28;20150;-46
2022/09/24 23:36:34;;;;;;;7.78;4.82;;;21.30;58.70;;;;;;10360786;28;20084;-42
2022/09/24 23:41:36;;;;;;;11.73;5.47;;;21.30;58.70;;;;;;10361378;28;20045;-42
2022/09/24 23:46:38;;;;;;;10.85;5.15;;;21.30;58.90;;;;;;10358316;28;22130;-45
2022/09/24 23:51:42;;;;;;;7.63;4.00;;;21.20;58.80;;;;;;10358865;28;20059;-42
2022/09/24 23:56:44;;;;;;;7.55;4.78;;;21.20;58.80;;;;;;10357973;28;20064;-45
